Nearby METAR Reports

 

CYYJ - Victoria Intl Ar, British Columbia, Canada
Distance from station: N 6km
Updated: 14/12/2019 00:00
Mostly cloudy
Mostly cloudy
 Wind from SW
Wind: SW 6 km/h
Temperature: 3°C
Dew Point: 3°C
Humidity: 100%
Barometer: 1015.9 hPa
Clouds: Mostly cloudy
Visibility: 32 km
Cloud details: Mostly cloudy 1219 m
Mostly cloudy 2469 m
2019/12/14 08:00 CYYJ 140800Z 23003KT 20SM BKN040 BKN081 03/03 A3000 RMK SC5AC1 SLP162
CWKH - Malahat (autob), British Columbia, Canada
Distance from station: WSW 10km
Updated: 14/12/2019 00:00

 
Temperature: 2°C
2019/12/14 08:00 CWKH 140800Z AUTO 02/ RMK AO1 SLP147 T0015 50001
 
CWPF - Esquimalt Metoc, British Columbia, Canada
Distance from station: S 18km
Updated: 14/12/2019 00:30

 Wind from N
Wind: N 6 km/h
Temperature: 4°C
Dew Point: 3°C
Humidity: 93%
2019/12/14 08:30 CWPF 140830Z AUTO 35003KT 04/03 RMK AO1 SLP157 T00420033 58001
CWYJ - Victoria Univ, British Columbia, Canada
Distance from station: SSE 18km
Updated: 14/12/2019 00:00

 Wind from W
Wind: W 4 km/h
Temperature: 4°C
Dew Point: 4°C
Humidity: 100%
2019/12/14 08:00 CWYJ 140800Z AUTO 27002KT 04/04 RMK AO1 SLP161 T00390035 50002
 
CYWH - Victoria Harbour, British Columbia, Canada
Distance from station: S 20km
Updated: 13/12/2019 21:00
NOT Current
Mostly cloudy
Mostly cloudy
 Wind from varies
Wind: varies 4 km/h
Temperature: 5°C
Dew Point: 5°C
Humidity: 100%
Barometer: 1016.3 hPa
Clouds: Mostly cloudy
Visibility: 24 km
Cloud details: Few Clouds 213 m
Mostly cloudy 1524 m
Mostly cloudy 3658 m
2019/12/14 05:00 CYWH 140500Z VRB02KT 15SM FEW007 BKN050 BKN120 05/05 A3001 RMK SF2SC4AC1 LAST STFD OBS/NEXT 141400Z SLP163
CWLM - Victoria (autob), British Columbia, Canada
Distance from station: SSE 21km
Updated: 14/12/2019 00:00

 Wind from WSW
Wind: WSW 7 km/h
Temperature: 6°C
Wind Chill: 4°C
Dew Point: 5°C
Humidity: 93%
2019/12/14 08:00 CWLM 140800Z AUTO 24004KT 06/05 RMK AO1 SLP161 T00560046 50001
 
KFHR - Friday Harbor, Washington, USA
Distance from station: ESE 30km
Updated: 13/12/2019 23:53
Overcast
Overcast
 Wind from W
Wind: W 6 km/h
Temperature: 6°C
Dew Point: 4°C
Humidity: 87%
Barometer: 1016.3 hPa
Clouds: Overcast
Visibility: 16 km
Cloud details: Few Clouds 1036 m
Overcast 1433 m
2019/12/14 07:53 KFHR 140753Z AUTO 27003KT 10SM FEW034 OVC047 06/04 A3001 RMK AO2 RAE03 SLP163 P0000 T00560044 400830033
CWQK - Race Rocks Autob, British Columbia, Canada
Distance from station: SSW 34km
Updated: 14/12/2019 00:00

 Wind from WSW
Wind: WSW 4 km/h
Temperature: 6°C
Dew Point: 5°C
Humidity: 93%
2019/12/14 08:00 CWQK 140800Z AUTO 24002KT 06/05 RMK AO1 SLP161 T00640051 50001
 
CWEZ - Saturna Isl (map, British Columbia, Canada
Distance from station: NE 35km
Updated: 14/12/2019 00:00

 Wind from SW
Wind: SW 7 km/h
Temperature: 6°C
Wind Chill: 4°C
Dew Point: 5°C
Humidity: 93%
2019/12/14 08:00 CWEZ 140800Z AUTO 23004KT 06/05 RMK AO1 SLP156 T00600052 50000
KORS - Eastsound/Orcas, Washington, USA
Distance from station: ENE 39km
Updated: 14/12/2019 00:35
Overcast
Overcast
 Wind from calm
Wind: Calm
Temperature: 6°C
Dew Point: 6°C
Humidity: 100%
Barometer: 1015.6 hPa
Clouds: Overcast
Visibility: 16 km
Cloud details: Mostly cloudy 366 m
Overcast 1372 m
2019/12/14 08:35 KORS 140835Z AUTO 00000KT 10SM BKN012 OVC045 06/06 A2999 RMK AO2
 
CWSP - Sheringham Autob, British Columbia, Canada
Distance from station: WSW 43km
Updated: 14/12/2019 00:00

 Wind from calm
Wind: Calm
Temperature: 6°C
2019/12/14 08:00 CWSP 140800Z AUTO 00000KT 06/ RMK AO1 SLP164 T0059 50000